createdAt,value
2022-11-25T00:00:48.354Z,38.50
2022-11-25T00:03:19.242Z,37.23
2022-11-25T00:05:51.066Z,38.83
2022-11-25T00:08:21.450Z,36.77
2022-11-25T00:10:51.958Z,34.87
2022-11-25T00:13:22.532Z,38.43
2022-11-25T00:15:52.908Z,36.33
2022-11-25T00:18:23.475Z,34.93
2022-11-25T00:20:56.297Z,35.53
2022-11-25T00:23:33.125Z,32.63
2022-11-25T00:26:08.788Z,34.43
2022-11-25T00:28:40.218Z,33.97
2022-11-25T00:31:23.977Z,31.70
2022-11-25T00:33:55.088Z,31.10
2022-11-25T00:36:30.089Z,29.43
2022-11-25T00:39:03.652Z,29.17
2022-11-25T00:41:51.960Z,34.40
2022-11-25T00:44:42.408Z,34.50
2022-11-25T00:47:18.382Z,33.37
2022-11-25T00:49:53.020Z,33.97
2022-11-25T00:52:27.373Z,31.67
2022-11-25T00:54:59.415Z,37.77
2022-11-25T00:57:31.389Z,34.13
2022-11-25T01:00:01.840Z,34.63
2022-11-25T01:02:32.467Z,37.63
2022-11-25T01:05:03.070Z,39.67
2022-11-25T01:07:33.554Z,38.50
2022-11-25T01:10:04.124Z,40.33
2022-11-25T01:12:35.428Z,36.53
2022-11-25T01:15:08.160Z,40.33
2022-11-25T01:17:39.932Z,40.10
2022-11-25T01:20:11.780Z,40.73
2022-11-25T01:22:43.775Z,43.40
2022-11-25T01:25:14.476Z,40.77
2022-11-25T01:27:44.925Z,40.93
2022-11-25T01:30:15.598Z,40.27
2022-11-25T01:32:46.130Z,41.60
2022-11-25T01:35:17.739Z,44.77
2022-11-25T01:37:48.907Z,45.97
2022-11-25T01:40:20.838Z,45.27
2022-11-25T01:42:51.307Z,42.93
2022-11-25T01:45:28.771Z,40.50
2022-11-25T01:48:02.616Z,45.43
2022-11-25T01:50:34.554Z,44.73
2022-11-25T01:53:08.427Z,42.07
2022-11-25T01:55:41.956Z,44.03
2022-11-25T01:58:15.505Z,43.73
2022-11-25T02:00:47.777Z,44.20
2022-11-25T02:03:21.454Z,45.37
2022-11-25T02:06:10.348Z,49.80
2022-11-25T02:08:43.248Z,45.47
2022-11-25T02:11:17.755Z,45.80
2022-11-25T02:13:51.073Z,48.77
2022-11-25T02:16:24.211Z,49.83
2022-11-25T02:18:55.781Z,50.10
2022-11-25T02:21:29.404Z,50.43
2022-11-25T02:24:09.385Z,52.70
2022-11-25T02:26:43.021Z,48.60
2022-11-25T02:29:18.130Z,49.13
2022-11-25T02:31:51.458Z,45.77
2022-11-25T02:34:22.229Z,44.93
2022-11-25T02:36:53.530Z,43.30
2022-11-25T02:39:24.549Z,43.57
2022-11-25T02:42:00.942Z,47.30
2022-11-25T02:44:35.322Z,44.97
2022-11-25T02:47:05.986Z,45.50
2022-11-25T02:49:36.559Z,41.77
2022-11-25T02:52:07.290Z,43.83
2022-11-25T02:54:39.511Z,40.80
2022-11-25T02:57:12.320Z,43.00
2022-11-25T02:59:43.095Z,45.07
2022-11-25T03:02:13.599Z,44.87
2022-11-25T03:04:44.173Z,40.53
2022-11-25T03:07:14.706Z,39.57
2022-11-25T03:09:45.354Z,42.30
2022-11-25T03:12:23.725Z,39.77
2022-11-25T03:14:54.343Z,40.50
2022-11-25T03:17:24.748Z,39.27
2022-11-25T03:19:56.437Z,40.60
2022-11-25T03:22:27.732Z,40.23
2022-11-25T03:24:58.308Z,39.98
2022-11-25T03:27:30.552Z,39.43
2022-11-25T03:30:01.318Z,36.67
2022-11-25T03:32:31.901Z,37.67
2022-11-25T03:35:02.814Z,37.83
2022-11-25T03:37:33.314Z,38.00
2022-11-25T03:40:06.896Z,38.90
2022-11-25T03:42:37.909Z,37.10
2022-11-25T03:45:10.273Z,38.17
2022-11-25T03:47:41.782Z,39.77
2022-11-25T03:50:14.538Z,38.23
2022-11-25T03:52:45.094Z,38.17
2022-11-25T03:55:15.665Z,38.00
2022-11-25T03:57:46.398Z,37.93
2022-11-25T04:00:17.298Z,36.50
2022-11-25T04:02:48.345Z,37.43
2022-11-25T04:05:19.208Z,37.97
2022-11-25T04:07:53.538Z,39.80
2022-11-25T04:10:22.037Z,39.83
2022-11-25T04:12:52.633Z,35.67
2022-11-25T04:15:23.249Z,35.15
2022-11-25T04:17:54.102Z,38.67
2022-11-25T04:20:24.890Z,39.17
2022-11-25T04:22:55.465Z,39.07
2022-11-25T04:25:25.998Z,37.97
2022-11-25T04:27:58.986Z,36.73
2022-11-25T04:30:29.423Z,37.50
2022-11-25T04:33:02.043Z,37.37
2022-11-25T04:35:33.037Z,37.10
2022-11-25T04:38:03.727Z,38.43
2022-11-25T04:40:34.525Z,36.53
2022-11-25T04:43:10.374Z,38.23
2022-11-25T04:46:06.477Z,39.50
2022-11-25T04:48:10.386Z,39.40
2022-11-25T04:50:41.027Z,34.47
2022-11-25T04:53:11.608Z,37.40
2022-11-25T04:55:42.342Z,36.80
2022-11-25T04:58:14.244Z,39.50
2022-11-25T05:00:46.209Z,38.63
2022-11-25T05:03:16.702Z,42.70
2022-11-25T05:05:47.293Z,40.30
2022-11-25T05:08:17.750Z,34.97
2022-11-25T05:10:48.250Z,41.23
2022-11-25T05:13:18.783Z,41.13
2022-11-25T05:15:49.428Z,40.87
2022-11-25T05:18:19.874Z,42.97
2022-11-25T05:20:50.367Z,35.83
2022-11-25T05:23:21.743Z,37.53
2022-11-25T05:25:52.175Z,36.70
2022-11-25T05:28:22.563Z,36.87
2022-11-25T05:30:53.750Z,34.10
2022-11-25T05:33:24.338Z,34.20
2022-11-25T05:36:00.337Z,39.90
2022-11-25T05:38:31.454Z,40.60
2022-11-25T05:41:04.459Z,42.30
2022-11-25T05:43:35.948Z,38.02
2022-11-25T05:46:07.905Z,40.10
2022-11-25T05:48:38.857Z,40.55
2022-11-25T05:51:10.506Z,43.25
2022-11-25T05:53:41.448Z,36.13
2022-11-25T05:56:13.419Z,38.03
2022-11-25T05:58:44.234Z,37.30
2022-11-25T06:01:18.562Z,36.77
2022-11-25T06:03:51.387Z,35.30
2022-11-25T06:06:22.659Z,34.43
2022-11-25T06:08:53.104Z,38.85
2022-11-25T06:11:25.600Z,38.17
2022-11-25T06:13:58.667Z,39.45
2022-11-25T06:16:29.311Z,35.13
2022-11-25T06:18:59.817Z,38.45
2022-11-25T06:21:30.281Z,38.78
2022-11-25T06:24:02.132Z,38.80
2022-11-25T06:26:32.690Z,39.27
2022-11-25T06:29:03.157Z,42.37
2022-11-25T06:31:34.031Z,38.90
2022-11-25T06:34:06.128Z,42.33
2022-11-25T06:36:36.882Z,49.03
2022-11-25T06:39:07.438Z,46.20
2022-11-25T06:41:38.325Z,43.77
2022-11-25T06:44:08.958Z,45.63
2022-11-25T06:46:41.819Z,44.43
2022-11-25T06:49:12.289Z,43.97
2022-11-25T06:51:42.830Z,47.73
2022-11-25T06:54:13.434Z,50.87
2022-11-25T06:56:44.024Z,41.47
2022-11-25T06:59:14.691Z,44.93
2022-11-25T07:01:47.480Z,50.35
2022-11-25T07:04:17.927Z,51.73
2022-11-25T07:06:50.977Z,53.83
2022-11-25T07:09:22.564Z,45.20
2022-11-25T07:11:53.248Z,44.42
2022-11-25T07:14:23.822Z,44.08
2022-11-25T07:16:54.419Z,47.43
2022-11-25T07:19:25.011Z,45.83
2022-11-25T07:21:55.550Z,44.10
2022-11-25T07:24:26.093Z,43.95
2022-11-25T07:26:56.602Z,48.13
2022-11-25T07:32:05.666Z,47.43
2022-11-25T07:34:33.665Z,50.40
2022-11-25T07:37:04.095Z,45.73
2022-11-25T07:39:35.203Z,44.10
2022-11-25T07:42:07.414Z,44.40
2022-11-25T07:44:37.961Z,40.97
2022-11-25T07:47:09.095Z,49.83
2022-11-25T07:49:39.891Z,43.30
2022-11-25T07:52:10.671Z,40.28
2022-11-25T07:54:41.835Z,42.07
2022-11-25T07:57:12.912Z,42.00
2022-11-25T07:59:43.308Z,43.47
2022-11-25T08:02:15.148Z,40.47
2022-11-25T08:04:46.882Z,43.23
2022-11-25T08:07:17.385Z,42.90
2022-11-25T08:09:47.893Z,41.87
2022-11-25T08:12:19.746Z,39.77
2022-11-25T08:14:50.282Z,46.50
2022-11-25T08:17:20.996Z,41.30
2022-11-25T08:19:51.488Z,39.70
2022-11-25T08:22:23.345Z,42.50
2022-11-25T08:24:53.814Z,38.07
2022-11-25T08:27:25.272Z,40.43
2022-11-25T08:29:55.791Z,40.93
2022-11-25T08:32:28.133Z,41.15
2022-11-25T08:35:02.969Z,34.67
2022-11-25T08:37:33.794Z,33.23
2022-11-25T08:40:06.818Z,34.40
2022-11-25T08:42:40.182Z,35.08
2022-11-25T08:45:12.905Z,34.43
2022-11-25T08:47:45.762Z,34.53
2022-11-25T08:50:17.709Z,34.58
2022-11-25T08:52:49.490Z,35.95
2022-11-25T08:55:21.470Z,30.67
2022-11-25T08:57:51.964Z,38.00
2022-11-25T09:00:24.646Z,32.00
2022-11-25T09:02:55.360Z,32.90
2022-11-25T09:05:27.680Z,36.43
2022-11-25T09:07:59.933Z,31.73
2022-11-25T09:10:31.594Z,40.83
2022-11-25T09:13:02.487Z,38.33
2022-11-25T09:15:37.844Z,37.70
2022-11-25T09:18:11.528Z,36.42
2022-11-25T09:20:42.159Z,38.40
2022-11-25T09:23:14.372Z,36.67
2022-11-25T09:25:57.008Z,35.85
2022-11-25T09:28:28.269Z,34.58
2022-11-25T09:30:59.069Z,36.38
2022-11-25T09:33:32.161Z,35.35
2022-11-25T09:36:05.946Z,30.68
2022-11-25T09:38:42.779Z,34.92
2022-11-25T09:41:20.202Z,29.92
2022-11-25T09:44:11.562Z,32.17
2022-11-25T09:47:01.038Z,32.27
2022-11-25T09:49:36.186Z,33.70
2022-11-25T09:52:10.249Z,29.07
2022-11-25T09:54:46.636Z,29.37
2022-11-25T09:57:27.301Z,31.60
2022-11-25T10:00:11.102Z,27.27
2022-11-25T10:02:46.260Z,31.80
2022-11-25T10:05:36.684Z,31.02
2022-11-25T10:08:24.305Z,31.48
2022-11-25T10:10:59.748Z,31.95
2022-11-25T10:13:41.858Z,31.02
2022-11-25T10:16:15.417Z,32.20
2022-11-25T10:18:49.083Z,30.52
2022-11-25T10:21:19.658Z,33.63
2022-11-25T10:23:51.371Z,31.02
2022-11-25T10:26:24.394Z,36.68
2022-11-25T10:29:22.046Z,30.60
2022-11-25T10:31:59.348Z,35.00
2022-11-25T10:34:40.022Z,33.70
2022-11-25T10:37:20.673Z,31.33
2022-11-25T10:39:51.359Z,34.63
2022-11-25T10:42:25.192Z,36.40
2022-11-25T10:44:56.081Z,37.85
2022-11-25T10:47:39.104Z,35.63
2022-11-25T10:50:21.423Z,34.45
2022-11-25T10:53:12.047Z,32.05
2022-11-25T10:56:00.806Z,34.90
2022-11-25T10:58:39.546Z,39.98
2022-11-25T11:01:25.728Z,31.50
2022-11-25T11:04:09.368Z,36.88
2022-11-25T11:06:42.631Z,34.05
2022-11-25T11:09:38.830Z,31.35
2022-11-25T11:12:18.580Z,31.82
2022-11-25T11:14:51.278Z,34.50
2022-11-25T11:17:36.882Z,32.50
2022-11-25T11:20:10.307Z,35.00
2022-11-25T11:23:05.523Z,36.17
2022-11-25T11:25:37.120Z,35.67
2022-11-25T11:28:27.788Z,37.37
2022-11-25T11:31:10.920Z,37.80
2022-11-25T11:33:57.969Z,40.90
2022-11-25T11:37:05.494Z,41.90
2022-11-25T11:39:39.370Z,38.45
2022-11-25T11:42:20.893Z,38.33
2022-11-25T11:44:57.731Z,39.45
2022-11-25T11:47:31.339Z,36.98
2022-11-25T11:50:21.534Z,36.60
2022-11-25T11:52:58.597Z,39.53
2022-11-25T11:56:00.281Z,36.95
2022-11-25T11:58:27.050Z,38.38
2022-11-25T12:01:10.050Z,39.85
2022-11-25T12:03:50.226Z,39.58
2022-11-25T12:06:21.342Z,36.15
2022-11-25T12:08:59.936Z,38.42
2022-11-25T12:11:39.163Z,40.23
2022-11-25T12:14:27.640Z,40.35
2022-11-25T12:17:04.009Z,41.83
2022-11-25T12:19:43.509Z,42.55
2022-11-25T12:22:34.714Z,42.35
2022-11-25T12:25:18.800Z,39.55
2022-11-25T12:27:52.269Z,40.20
2022-11-25T12:30:24.926Z,42.23
2022-11-25T12:33:13.202Z,40.92
2022-11-25T12:35:58.983Z,42.10
2022-11-25T12:38:41.283Z,44.08
2022-11-25T12:41:30.991Z,42.43
2022-11-25T12:44:26.709Z,41.40
2022-11-25T12:46:59.344Z,39.83
2022-11-25T12:49:35.831Z,37.80
2022-11-25T12:52:25.743Z,39.67
2022-11-25T12:55:18.723Z,41.68
2022-11-25T12:58:08.729Z,38.75
2022-11-25T13:00:54.585Z,38.78
2022-11-25T13:04:03.867Z,37.40
2022-11-25T13:07:01.942Z,34.85
2022-11-25T13:09:47.986Z,38.23
2022-11-25T13:12:55.435Z,37.78
2022-11-25T13:15:33.191Z,40.27
2022-11-25T13:18:07.010Z,45.35
2022-11-25T13:20:46.532Z,43.52
2022-11-25T13:23:26.159Z,46.77
2022-11-25T13:26:16.699Z,43.50
2022-11-25T13:28:48.285Z,46.28
2022-11-25T13:31:22.764Z,46.70
2022-11-25T13:34:05.690Z,48.07
2022-11-25T13:36:48.511Z,49.30
2022-11-25T13:39:36.127Z,53.63
2022-11-25T13:42:21.738Z,48.30
2022-11-25T13:44:54.506Z,49.42
2022-11-25T13:47:31.814Z,52.75
2022-11-25T13:50:21.773Z,53.00
2022-11-25T13:53:01.268Z,54.85
2022-11-25T13:55:43.083Z,49.13
2022-11-25T13:58:21.108Z,44.73
2022-11-25T14:01:09.242Z,48.85
2022-11-25T14:03:45.582Z,45.55
2022-11-25T14:06:28.726Z,48.83
2022-11-25T14:09:17.242Z,45.17
2022-11-25T14:11:59.868Z,48.00
2022-11-25T14:15:00.459Z,41.63
2022-11-25T14:17:42.869Z,47.13
2022-11-25T14:20:31.111Z,44.48
2022-11-25T14:23:10.056Z,42.58
2022-11-25T14:25:55.419Z,44.38
2022-11-25T14:28:44.043Z,41.33
2022-11-25T14:31:18.108Z,43.17
2022-11-25T14:33:57.414Z,40.05
2022-11-25T14:36:35.280Z,41.53
2022-11-25T14:39:09.839Z,41.45
2022-11-25T14:42:01.141Z,39.80
2022-11-25T14:44:35.921Z,42.85
2022-11-25T14:47:10.189Z,38.90
2022-11-25T14:50:05.101Z,39.03
2022-11-25T14:52:30.961Z,40.33
2022-11-25T14:55:03.503Z,37.55
2022-11-25T14:57:39.659Z,36.65
2022-11-25T15:00:24.699Z,39.83
2022-11-25T15:02:59.010Z,42.40
2022-11-25T15:05:35.806Z,42.60
2022-11-25T15:08:12.002Z,44.83
2022-11-25T15:10:59.889Z,42.93
2022-11-25T15:13:37.788Z,43.40
2022-11-25T15:16:18.955Z,40.53
2022-11-25T15:18:55.338Z,45.70
2022-11-25T15:22:00.046Z,42.38
2022-11-25T15:24:27.822Z,41.42
2022-11-25T15:27:02.946Z,40.45
2022-11-25T15:29:36.968Z,42.53
2022-11-25T15:32:10.502Z,41.48
2022-11-25T15:34:42.744Z,46.20
2022-11-25T15:37:15.783Z,43.87
2022-11-25T15:39:46.992Z,42.27
2022-11-25T15:42:26.648Z,45.97
2022-11-25T15:45:06.910Z,40.97
2022-11-25T15:47:36.189Z,44.00
2022-11-25T15:50:25.913Z,44.98
2022-11-25T15:53:01.334Z,43.33
2022-11-25T15:55:40.113Z,43.07
2022-11-25T15:58:16.757Z,46.63
2022-11-25T16:01:06.953Z,43.20
2022-11-25T16:03:38.780Z,41.50
2022-11-25T16:06:24.109Z,42.20
2022-11-25T16:09:01.822Z,43.05
2022-11-25T16:11:34.046Z,42.40
2022-11-25T16:14:27.122Z,41.55
2022-11-25T16:17:00.718Z,43.15
2022-11-25T16:19:38.374Z,43.17
2022-11-25T16:22:12.071Z,42.62
2022-11-25T16:24:50.934Z,49.13
2022-11-25T16:27:27.796Z,40.83
2022-11-25T16:30:01.547Z,43.80
2022-11-25T16:32:34.886Z,41.80
2022-11-25T16:35:22.096Z,43.40
2022-11-25T16:37:57.168Z,43.50
2022-11-25T16:40:30.366Z,44.98
2022-11-25T16:43:02.294Z,45.48
2022-11-25T16:45:34.468Z,44.60
2022-11-25T16:48:10.794Z,39.48
2022-11-25T16:50:43.810Z,44.20
2022-11-25T16:53:14.455Z,41.85
2022-11-25T16:55:49.364Z,43.45
2022-11-25T16:58:23.365Z,40.25
2022-11-25T17:00:56.822Z,37.70
2022-11-25T17:03:27.877Z,41.15
2022-11-25T17:06:00.035Z,43.10
2022-11-25T17:08:30.657Z,44.93
2022-11-25T17:11:02.515Z,40.23
2022-11-25T17:13:35.430Z,49.30
2022-11-25T17:16:08.166Z,40.53
2022-11-25T17:18:38.939Z,44.27
2022-11-25T17:21:15.269Z,44.65
2022-11-25T17:23:50.133Z,41.02
2022-11-25T17:26:40.380Z,40.88
2022-11-25T17:29:20.892Z,39.37
2022-11-25T17:31:56.796Z,38.02
2022-11-25T17:34:25.161Z,41.95
2022-11-25T17:36:57.959Z,37.98
2022-11-25T17:39:30.411Z,40.67
2022-11-25T17:42:02.560Z,37.98
2022-11-25T17:44:36.337Z,36.63
2022-11-25T17:47:10.105Z,36.85
2022-11-25T17:49:41.249Z,40.30
2022-11-25T17:52:12.164Z,38.43
2022-11-25T17:54:43.015Z,35.20
2022-11-25T17:57:17.298Z,33.25
2022-11-25T17:59:51.112Z,33.98
2022-11-25T18:02:24.653Z,34.00
2022-11-25T18:04:58.075Z,34.27
2022-11-25T18:07:30.050Z,30.15
2022-11-25T18:10:00.586Z,31.17
2022-11-25T18:12:33.242Z,33.80
2022-11-25T18:15:06.193Z,35.30
2022-11-25T18:17:39.236Z,56.85
2022-11-25T18:20:16.140Z,40.33
2022-11-25T18:22:50.800Z,102.12
2022-11-25T18:25:28.523Z,37.33
2022-11-25T18:28:01.508Z,32.35
2022-11-25T18:30:34.754Z,33.50
2022-11-25T18:33:08.614Z,39.25
2022-11-25T18:35:39.140Z,32.80
2022-11-25T18:38:10.036Z,35.13
2022-11-25T18:40:47.500Z,33.63
2022-11-25T18:43:19.169Z,37.40
2022-11-25T18:45:50.585Z,36.47
2022-11-25T18:48:25.661Z,33.45
2022-11-25T18:50:57.529Z,33.42
2022-11-25T18:53:30.866Z,54.85
2022-11-25T18:56:02.862Z,46.33
2022-11-25T18:58:33.821Z,48.87
2022-11-25T19:01:09.200Z,42.85
2022-11-25T19:03:44.488Z,35.13
2022-11-25T19:06:15.595Z,31.52
2022-11-25T19:08:46.949Z,33.98
2022-11-25T19:11:35.163Z,38.78
2022-11-25T19:14:11.143Z,38.55
2022-11-25T19:16:42.834Z,38.10
2022-11-25T19:19:19.183Z,35.13
2022-11-25T19:21:49.698Z,38.40
2022-11-25T19:24:20.538Z,36.42
2022-11-25T19:26:53.355Z,41.28
2022-11-25T19:29:41.791Z,39.08
2022-11-25T19:32:15.004Z,38.35
2022-11-25T19:34:48.901Z,36.53
2022-11-25T19:37:21.403Z,31.37
2022-11-25T19:39:53.812Z,28.63
2022-11-25T19:42:29.405Z,29.07
2022-11-25T19:45:00.599Z,31.70
2022-11-25T19:47:31.743Z,38.38
2022-11-25T19:50:05.025Z,28.90
2022-11-25T19:52:42.963Z,27.40
2022-11-25T19:55:16.279Z,25.10
2022-11-25T19:57:48.423Z,28.07
2022-11-25T20:00:24.071Z,26.77
2022-11-25T20:02:57.625Z,20.50
2022-11-25T20:05:35.341Z,22.60
2022-11-25T20:08:08.985Z,21.50
2022-11-25T20:10:39.446Z,20.88
2022-11-25T20:13:12.098Z,23.57
2022-11-25T20:15:46.775Z,20.55
2022-11-25T20:18:22.039Z,24.97
2022-11-25T20:20:58.409Z,20.85
2022-11-25T20:23:38.657Z,23.50
2022-11-25T20:26:11.495Z,24.15
2022-11-25T20:28:42.071Z,24.20
2022-11-25T20:31:15.139Z,26.45
2022-11-25T20:33:47.684Z,24.92
2022-11-25T20:36:21.151Z,27.07
2022-11-25T20:38:55.134Z,27.62
2022-11-25T20:41:28.074Z,24.90
2022-11-25T20:43:59.579Z,24.25
2022-11-25T20:46:32.160Z,25.75
2022-11-25T20:49:06.049Z,24.52
2022-11-25T20:51:36.969Z,24.43
2022-11-25T20:54:11.678Z,28.50
2022-11-25T20:56:42.637Z,27.02
2022-11-25T20:59:16.146Z,27.98
2022-11-25T21:01:55.201Z,26.82
2022-11-25T21:04:24.699Z,22.60
2022-11-25T21:06:57.996Z,30.77
2022-11-25T21:09:32.065Z,24.67
2022-11-25T21:12:03.496Z,28.02
2022-11-25T21:14:35.980Z,23.45
2022-11-25T21:17:08.831Z,28.30
2022-11-25T21:19:39.736Z,31.40
2022-11-25T21:22:13.353Z,21.60
2022-11-25T21:24:45.827Z,25.40
2022-11-25T21:27:19.881Z,23.02
2022-11-25T21:29:59.636Z,22.93
2022-11-25T21:32:30.339Z,21.45
2022-11-25T21:35:02.647Z,19.67
2022-11-25T21:37:40.246Z,21.57
2022-11-25T21:40:17.802Z,24.57
2022-11-25T21:42:49.893Z,20.10
2022-11-25T21:45:22.973Z,21.63
2022-11-25T21:47:55.893Z,19.07
2022-11-25T21:50:28.107Z,20.00
2022-11-25T21:53:00.839Z,23.27
2022-11-25T21:55:35.369Z,21.15
2022-11-25T21:58:07.700Z,20.65
2022-11-25T22:00:38.779Z,23.53
2022-11-25T22:03:18.297Z,23.77
2022-11-25T22:05:49.569Z,23.62
2022-11-25T22:08:20.239Z,24.18
2022-11-25T22:10:55.172Z,24.77
2022-11-25T22:13:33.054Z,27.70
2022-11-25T22:16:04.332Z,24.83
2022-11-25T22:18:37.590Z,27.07
2022-11-25T22:21:14.466Z,25.90
2022-11-25T22:23:45.253Z,29.18
2022-11-25T22:26:30.744Z,24.57
2022-11-25T22:29:02.547Z,26.80
2022-11-25T22:31:33.694Z,25.40
2022-11-25T22:34:05.674Z,26.10
2022-11-25T22:36:40.191Z,25.97
2022-11-25T22:39:19.678Z,22.87
2022-11-25T22:41:53.200Z,23.92
2022-11-25T22:44:27.216Z,25.27
2022-11-25T22:46:59.794Z,26.03
2022-11-25T22:49:36.899Z,25.48
2022-11-25T22:52:11.452Z,24.13
2022-11-25T22:54:44.718Z,25.50
2022-11-25T22:57:15.446Z,24.70
2022-11-25T22:59:47.154Z,27.30
2022-11-25T23:02:24.026Z,24.87
2022-11-25T23:04:57.628Z,24.10
2022-11-25T23:07:31.156Z,21.37
2022-11-25T23:10:02.561Z,26.33
2022-11-25T23:12:33.213Z,21.90
2022-11-25T23:15:07.595Z,23.12
2022-11-25T23:17:39.867Z,21.83
2022-11-25T23:20:19.419Z,25.75
2022-11-25T23:22:53.036Z,24.67
2022-11-25T23:25:24.437Z,25.20
2022-11-25T23:27:56.052Z,25.00
2022-11-25T23:30:29.573Z,27.00
2022-11-25T23:33:00.950Z,27.80
2022-11-25T23:35:36.172Z,27.37
2022-11-25T23:38:11.676Z,29.15
2022-11-25T23:40:42.453Z,28.40
2022-11-25T23:43:15.674Z,31.52
2022-11-25T23:45:52.287Z,34.38
2022-11-25T23:48:26.551Z,32.17
2022-11-25T23:50:58.526Z,34.73
2022-11-25T23:53:36.143Z,36.63
2022-11-25T23:56:07.696Z,36.00
2022-11-25T23:58:40.092Z,38.25
